Time;durP1;ratioP1;P1;durP2;ratioP2;P2;SDS_P1;SDS_P2;PMS_P1;PMS_P2;Temp;Humidity;BMP_temperature;BMP_pressure;BME280_temperature;BME280_humidity;BME280_pressure;Samples;Min_cycle;Max_cycle;Signal;HPM_P1;HPM_P2
2022/01/05 00:01:47;;;;;;;28.55;20.23;;;;;;;14.86;48.46;91584.16;4939460;28;20042;-82
2022/01/05 00:04:13;;;;;;;28.70;20.52;;;;;;;14.86;48.59;91586.88;4939269;28;20042;-83
2022/01/05 00:06:39;;;;;;;27.90;20.85;;;;;;;14.87;48.40;91610.84;4972828;28;20383;-82
2022/01/05 00:09:04;;;;;;;27.50;20.58;;;;;;;14.83;48.57;91620.56;4939171;28;20093;-83
2022/01/05 00:11:29;;;;;;;28.00;20.95;;;;;;;14.83;48.74;91607.72;4972456;28;20037;-83
2022/01/05 00:13:56;;;;;;;28.65;20.88;;;;;;;14.81;48.90;91604.06;4955398;28;20081;-83
2022/01/05 00:16:22;;;;;;;26.73;20.73;;;;;;;14.84;48.35;91613.88;4939250;28;20138;-82
2022/01/05 00:18:47;;;;;;;27.38;19.48;;;;;;;14.82;48.63;91603.53;4923692;28;20031;-83
2022/01/05 00:21:13;;;;;;;28.27;21.27;;;;;;;14.83;48.47;91607.72;4954498;28;20047;-82
2022/01/05 00:23:38;;;;;;;29.15;20.90;;;;;;;14.87;48.56;91602.66;4939296;28;20039;-83
2022/01/05 00:26:04;;;;;;;25.55;19.25;;;;;;;14.87;48.69;91605.38;4954803;28;20046;-82
2022/01/05 00:28:30;;;;;;;27.92;19.70;;;;;;;14.89;48.52;91607.59;4923756;28;20039;-83
2022/01/05 00:30:55;;;;;;;26.13;19.48;;;;;;;14.86;48.81;91603.94;4939320;28;20493;-83
2022/01/05 00:33:21;;;;;;;28.45;20.13;;;;;;;14.83;48.56;91615.88;4938134;28;20051;-82
2022/01/05 00:35:49;;;;;;;26.45;20.45;;;;;;;14.82;49.16;91613.69;4938723;28;20053;-83
2022/01/05 00:38:14;;;;;;;29.38;20.00;;;;;;;14.84;49.02;91624.75;4938939;28;20047;-83
2022/01/05 00:40:39;;;;;;;25.77;20.33;;;;;;;14.86;48.73;91620.25;4954844;28;20038;-83
2022/01/05 00:43:05;;;;;;;24.70;18.95;;;;;;;14.86;48.60;91625.69;4938440;28;20553;-83
2022/01/05 00:45:30;;;;;;;24.25;20.40;;;;;;;14.85;48.68;91612.63;4954973;28;20049;-82
2022/01/05 00:47:55;;;;;;;23.67;19.85;;;;;;;14.86;48.63;91609.38;4954780;28;20034;-82
2022/01/05 00:50:21;;;;;;;24.52;18.67;;;;;;;14.86;48.53;91614.06;4971941;28;20034;-83
2022/01/05 00:52:46;;;;;;;27.95;20.83;;;;;;;14.80;48.46;91616.94;4938554;28;20078;-83
2022/01/05 00:55:12;;;;;;;26.02;20.25;;;;;;;14.83;48.52;91615.13;4922344;28;20138;-83
2022/01/05 00:57:37;;;;;;;26.17;20.15;;;;;;;14.86;48.60;91622.97;4954741;28;20038;-83
2022/01/05 01:00:04;;;;;;;27.67;19.73;;;;;;;14.85;48.53;91632.38;4935049;28;20054;-83
2022/01/05 01:02:29;;;;;;;25.35;19.73;;;;;;;14.87;48.34;91620.97;4938702;28;20037;-83
2022/01/05 01:04:54;;;;;;;25.85;19.77;;;;;;;14.88;48.38;91630.59;4938416;28;20042;-83
2022/01/05 01:07:20;;;;;;;25.58;19.48;;;;;;;14.87;48.48;91615.53;4970884;28;20090;-82
2022/01/05 01:09:45;;;;;;;28.25;19.63;;;;;;;14.83;48.43;91626.75;4954167;28;20410;-83
2022/01/05 01:12:11;;;;;;;25.65;19.40;;;;;;;14.83;48.56;91626.75;4918609;28;20036;-83
2022/01/05 01:14:36;;;;;;;26.38;19.45;;;;;;;14.83;48.63;91620.56;4935106;28;20602;-83
2022/01/05 01:17:02;;;;;;;25.65;19.65;;;;;;;14.81;48.62;91621.09;4919474;29;20039;-83
2022/01/05 01:19:27;;;;;;;24.92;19.33;;;;;;;14.83;48.07;91615.88;4934472;28;20059;-83
2022/01/05 01:21:53;;;;;;;25.63;19.52;;;;;;;14.84;48.60;91614.59;4919166;29;20046;-83
2022/01/05 01:24:18;;;;;;;22.70;18.40;;;;;;;14.84;48.28;91617.31;4929093;28;20042;-83
2022/01/05 01:26:43;;;;;;;24.35;19.25;;;;;;;14.83;48.54;91613.16;4954107;28;20035;-82
2022/01/05 01:29:09;;;;;;;24.60;19.55;;;;;;;14.86;48.45;91600.47;4937917;28;20042;-82
2022/01/05 01:31:34;;;;;;;25.17;19.35;;;;;;;14.86;48.29;91595.03;4953817;28;20057;-83
2022/01/05 01:34:00;;;;;;;25.42;17.88;;;;;;;14.86;48.43;91586.88;4938259;28;20406;-83
2022/01/05 01:36:25;;;;;;;27.55;19.58;;;;;;;14.85;48.56;91593.56;4936855;28;20093;-82
2022/01/05 01:38:51;;;;;;;26.63;18.45;;;;;;;14.84;48.51;91592.84;4937926;28;20034;-83
2022/01/05 01:41:16;;;;;;;26.45;19.13;;;;;;;14.82;48.62;91600.06;4937537;28;20386;-82
2022/01/05 01:43:42;;;;;;;24.90;18.98;;;;;;;14.85;48.42;91610.63;4937777;28;20061;-82
2022/01/05 01:46:08;;;;;;;26.25;18.95;;;;;;;14.81;48.44;91626.53;4938055;28;20031;-82
2022/01/05 01:48:33;;;;;;;24.10;18.85;;;;;;;14.82;48.41;91627.28;4953938;28;20494;-82
2022/01/05 01:50:59;;;;;;;25.52;19.50;;;;;;;14.83;48.55;91626.75;4970985;28;20053;-83
2022/01/05 01:53:24;;;;;;;24.88;18.55;;;;;;;14.83;48.45;91639.63;4937243;28;20031;-82
2022/01/05 01:55:50;;;;;;;22.38;19.25;;;;;;;14.82;48.50;91633.44;4953790;28;20054;-83
2022/01/05 01:58:17;;;;;;;27.23;19.17;;;;;;;14.84;48.40;91633.66;4937193;28;20493;-83
2022/01/05 02:00:43;;;;;;;24.38;17.70;;;;;;;14.81;48.64;91631.25;4921969;28;20065;-83
2022/01/05 02:03:08;;;;;;;22.33;18.13;;;;;;;14.81;48.50;91653.75;4936694;28;20509;-83
2022/01/05 02:05:34;;;;;;;23.73;18.67;;;;;;;14.83;48.59;91658.66;4953603;28;20039;-82
2022/01/05 02:08:01;;;;;;;23.70;18.20;;;;;;;14.82;48.54;91670.78;4957445;28;20050;-82
2022/01/05 02:10:27;;;;;;;22.42;17.85;;;;;;;14.80;48.64;91686.91;4952380;28;20043;-83
2022/01/05 02:12:52;;;;;;;27.42;19.60;;;;;;;14.82;48.23;91689.84;4949274;28;20100;-83
2022/01/05 02:15:18;;;;;;;24.55;19.17;;;;;;;14.84;48.36;91685.34;4922373;28;20039;-83
2022/01/05 02:17:57;;;;;;;21.73;17.40;;;;;;;14.82;48.54;91678.97;4966596;28;20043;-83
2022/01/05 02:20:24;;;;;;;23.20;17.48;;;;;;;14.84;48.47;91669.00;4945374;28;20410;-82
2022/01/05 02:22:49;;;;;;;21.98;16.98;;;;;;;14.82;48.44;91671.53;4951747;28;20556;-82
2022/01/05 02:25:15;;;;;;;20.98;17.13;;;;;;;14.82;48.52;91681.69;4947780;28;20039;-83
2022/01/05 02:27:41;;;;;;;24.15;18.25;;;;;;;14.82;48.61;91678.97;4918226;29;20039;-82
2022/01/05 02:30:10;;;;;;;24.48;17.85;;;;;;;14.84;48.41;91660.84;4901889;29;20039;-82
2022/01/05 02:32:35;;;;;;;23.42;18.13;;;;;;;14.85;48.61;91664.31;4950626;28;20039;-83
2022/01/05 02:35:01;;;;;;;24.25;18.08;;;;;;;14.86;48.40;91682.09;4918076;28;20082;-83
2022/01/05 02:37:26;;;;;;;21.95;17.25;;;;;;;14.86;48.32;91676.66;4952062;28;20074;-83
2022/01/05 02:39:51;;;;;;;24.08;18.35;;;;;;;14.81;48.30;91680.22;4952883;28;20453;-83
2022/01/05 02:42:27;;;;;;;20.95;15.90;;;;;;;14.83;48.46;91677.69;4936462;28;20054;-83
2022/01/05 02:44:52;;;;;;;25.88;17.52;;;;;;;14.82;48.45;91671.53;4921166;28;20093;-83
2022/01/05 02:47:18;;;;;;;24.20;17.27;;;;;;;14.79;48.51;91675.31;4936147;28;20073;-83
2022/01/05 02:49:43;;;;;;;22.75;16.27;;;;;;;14.82;48.50;91665.34;4952623;28;20572;-83
2022/01/05 02:52:08;;;;;;;20.80;16.10;;;;;;;14.81;48.30;91675.50;4935809;28;20043;-83
2022/01/05 02:54:34;;;;;;;23.02;17.50;;;;;;;14.82;48.52;91679.69;4936628;28;20042;-83
2022/01/05 02:57:00;;;;;;;22.65;16.98;;;;;;;14.84;48.35;91682.63;4952645;28;20490;-83
2022/01/05 02:59:25;;;;;;;24.33;17.00;;;;;;;14.81;48.18;91688.38;4950776;28;20035;-83
2022/01/05 03:01:51;;;;;;;21.60;17.85;;;;;;;14.81;48.39;91674.78;4925819;28;20031;-83
2022/01/05 03:04:16;;;;;;;22.98;17.08;;;;;;;14.81;48.26;91672.06;4935605;28;20512;-83
2022/01/05 03:06:42;;;;;;;22.38;16.58;;;;;;;14.84;48.29;91685.34;4920868;28;20030;-83
2022/01/05 03:09:08;;;;;;;20.85;16.23;;;;;;;14.85;48.12;91686.06;4935710;28;20039;-83
2022/01/05 03:11:33;;;;;;;22.08;17.23;;;;;;;14.82;48.38;91681.69;4932899;29;20083;-83
2022/01/05 03:13:59;;;;;;;23.63;17.08;;;;;;;14.77;48.67;91680.53;4917406;29;20230;-83
2022/01/05 03:16:24;;;;;;;20.33;15.13;;;;;;;14.83;48.43;91692.03;4916718;28;20073;-82
2022/01/05 03:18:49;;;;;;;22.05;17.25;;;;;;;14.82;48.31;91689.84;4933061;28;20039;-83
2022/01/05 03:21:15;;;;;;;22.80;17.27;;;;;;;14.79;48.38;91688.16;4916973;28;20039;-82
2022/01/05 03:23:41;;;;;;;20.75;16.00;;;;;;;14.80;48.61;91703.22;4955228;28;20050;-83
2022/01/05 03:26:06;;;;;;;21.65;16.75;;;;;;;14.77;48.17;91702.28;4936321;28;20039;-83
2022/01/05 03:28:32;;;;;;;20.75;16.48;;;;;;;14.79;48.52;91718.09;4952106;28;20035;-83
2022/01/05 03:30:57;;;;;;;20.63;16.45;;;;;;;14.77;48.21;91723.31;4935152;28;20442;-83
2022/01/05 03:33:24;;;;;;;22.70;17.67;;;;;;;14.78;48.33;91728.25;4919642;28;20093;-83
2022/01/05 03:35:49;;;;;;;23.52;17.08;;;;;;;14.80;48.66;91733.88;4951661;28;20038;-83
2022/01/05 03:38:16;;;;;;;21.60;16.40;;;;;;;14.80;48.30;91725.00;4935384;28;20051;-83
2022/01/05 03:40:42;;;;;;;20.25;16.58;;;;;;;14.80;48.42;91735.88;4928407;28;20039;-83
2022/01/05 03:43:07;;;;;;;18.73;15.93;;;;;;;14.78;48.39;91722.06;4967757;28;20126;-83
2022/01/05 03:45:35;;;;;;;22.35;16.20;;;;;;;14.77;48.31;91715.91;4951874;28;20045;-83
2022/01/05 03:48:01;;;;;;;22.63;16.52;;;;;;;14.73;48.38;91707.31;4946927;28;20039;-83
2022/01/05 03:50:26;;;;;;;21.08;15.52;;;;;;;14.80;48.29;91712.13;4935132;28;20572;-83
2022/01/05 03:52:51;;;;;;;21.48;16.67;;;;;;;14.78;48.46;91713.91;4969556;28;20187;-83
2022/01/05 03:55:17;;;;;;;19.95;15.55;;;;;;;14.81;48.31;91712.84;4968428;28;20038;-83
2022/01/05 03:57:42;;;;;;;20.38;16.75;;;;;;;14.78;48.34;91706.47;4935933;28;20038;-83
2022/01/05 04:00:08;;;;;;;20.95;16.83;;;;;;;14.75;48.19;91721.13;4950754;28;20442;-83
2022/01/05 04:02:34;;;;;;;20.80;16.23;;;;;;;14.78;48.25;91703.03;4920167;28;20047;-83
2022/01/05 04:04:59;;;;;;;19.77;15.07;;;;;;;14.72;48.22;91701.16;4919885;28;20046;-83
2022/01/05 04:07:24;;;;;;;19.38;15.38;;;;;;;14.73;48.43;91712.78;4951324;28;20037;-83
2022/01/05 04:09:50;;;;;;;20.13;15.77;;;;;;;14.75;48.39;91713.69;4969177;28;20066;-83
2022/01/05 04:12:15;;;;;;;19.75;14.85;;;;;;;14.71;48.46;91726.91;4932126;28;20051;-83
2022/01/05 04:14:42;;;;;;;18.58;13.98;;;;;;;14.71;48.55;91743.25;4916602;29;20438;-83
2022/01/05 04:17:07;;;;;;;20.70;16.00;;;;;;;14.71;48.52;91732.34;4900518;28;20054;-83
2022/01/05 04:19:32;;;;;;;20.98;15.05;;;;;;;14.75;48.20;91734.72;4916704;29;20469;-83
2022/01/05 04:21:58;;;;;;;18.70;15.32;;;;;;;14.72;48.46;91724.94;4932321;28;20047;-83
2022/01/05 04:24:23;;;;;;;20.83;16.08;;;;;;;14.75;48.25;91730.03;4942769;28;20049;-83
2022/01/05 04:26:50;;;;;;;22.42;16.13;;;;;;;14.78;48.44;91733.69;4968648;28;20118;-83
2022/01/05 04:29:15;;;;;;;20.13;15.88;;;;;;;14.69;48.29;91724.00;4934791;28;20058;-83
2022/01/05 04:31:41;;;;;;;20.45;15.10;;;;;;;14.75;48.59;91729.28;4935285;28;20043;-83
2022/01/05 04:34:06;;;;;;;20.33;15.48;;;;;;;14.72;48.40;91720.19;4950968;28;20082;-83
2022/01/05 04:36:31;;;;;;;21.15;16.10;;;;;;;14.71;48.37;91728.91;4919572;28;20035;-83
2022/01/05 04:38:57;;;;;;;18.83;14.98;;;;;;;14.73;48.51;91718.22;4951415;28;20066;-82
2022/01/05 04:41:22;;;;;;;19.02;14.73;;;;;;;14.73;48.43;91712.78;4920116;28;20398;-83
2022/01/05 04:43:48;;;;;;;20.00;15.63;;;;;;;14.77;48.17;91712.44;4938884;28;20039;-82
2022/01/05 04:46:13;;;;;;;19.45;14.85;;;;;;;14.76;48.29;91711.72;4971717;28;20039;-83
2022/01/05 04:48:38;;;;;;;18.65;15.07;;;;;;;14.72;48.29;91719.50;4935647;28;20495;-83
2022/01/05 04:51:04;;;;;;;20.08;14.98;;;;;;;14.74;48.21;91712.25;4935023;28;20050;-83
2022/01/05 04:53:29;;;;;;;18.67;15.10;;;;;;;14.78;48.16;91730.22;4903876;29;20090;-83
2022/01/05 04:55:55;;;;;;;19.60;15.57;;;;;;;14.75;48.22;91729.28;4919606;29;20411;-83
2022/01/05 04:58:20;;;;;;;21.08;14.70;;;;;;;14.75;48.25;91740.91;4919064;28;20032;-83
2022/01/05 05:00:45;;;;;;;19.98;15.27;;;;;;;14.75;48.18;91740.91;4932774;28;20187;-83
2022/01/05 05:03:12;;;;;;;18.75;15.48;;;;;;;14.71;48.56;91740.53;4938326;28;20089;-83
2022/01/05 05:05:37;;;;;;;19.15;14.75;;;;;;;14.77;48.25;91739.66;4954586;28;20031;-83
2022/01/05 05:08:03;;;;;;;17.95;14.00;;;;;;;14.75;48.19;91749.06;4954068;28;20115;-83
2022/01/05 05:10:28;;;;;;;18.70;14.57;;;;;;;14.76;48.32;91755.22;4954015;28;20043;-83
2022/01/05 05:12:54;;;;;;;18.48;14.27;;;;;;;14.72;48.29;91769.16;4963808;28;20340;-83
2022/01/05 05:15:19;;;;;;;20.20;14.90;;;;;;;14.75;48.19;91770.09;4969846;28;20046;-83
2022/01/05 05:17:45;;;;;;;18.83;14.43;;;;;;;14.72;48.51;91771.16;4938581;28;20045;-83
2022/01/05 05:20:10;;;;;;;18.02;14.30;;;;;;;14.71;48.22;91773.16;4937774;28;20046;-83
2022/01/05 05:22:36;;;;;;;18.58;14.05;;;;;;;14.72;48.13;91774.59;4954059;28;20074;-83
2022/01/05 05:25:03;;;;;;;18.92;14.30;;;;;;;14.75;48.31;91780.97;4957188;28;20042;-83
2022/01/05 05:27:29;;;;;;;18.00;14.30;;;;;;;14.76;48.04;91777.00;4938102;28;20118;-83
2022/01/05 05:29:54;;;;;;;17.42;13.50;;;;;;;14.75;47.95;91780.97;4954084;28;20049;-83
2022/01/05 05:32:20;;;;;;;18.58;14.43;;;;;;;14.78;48.14;91784.63;4937358;28;20131;-83
2022/01/05 05:34:45;;;;;;;22.00;14.85;;;;;;;14.72;48.06;91796.34;4937906;28;20058;-83
2022/01/05 05:37:10;;;;;;;17.10;13.60;;;;;;;14.72;48.29;91792.94;4970582;28;20508;-83
2022/01/05 05:39:36;;;;;;;20.30;14.55;;;;;;;14.78;48.22;91798.97;4937863;28;20038;-83
2022/01/05 05:42:01;;;;;;;18.23;13.85;;;;;;;14.75;48.04;91803.47;4922013;28;20035;-83
2022/01/05 05:44:27;;;;;;;17.65;14.48;;;;;;;14.73;48.06;91800.53;4953202;28;20454;-82
2022/01/05 05:46:52;;;;;;;19.20;14.48;;;;;;;14.71;48.30;91800.34;4921923;28;20035;-83
2022/01/05 05:49:17;;;;;;;16.05;13.82;;;;;;;14.75;47.93;91802.72;4934121;28;20035;-83
2022/01/05 05:51:43;;;;;;;19.15;13.60;;;;;;;14.73;48.20;91805.25;4918226;28;20049;-82
2022/01/05 05:54:08;;;;;;;17.63;13.07;;;;;;;14.70;48.12;91798.16;4950647;28;20359;-83
2022/01/05 05:56:33;;;;;;;18.98;13.73;;;;;;;14.72;48.13;91799.06;4951592;28;20058;-83
2022/01/05 05:58:59;;;;;;;18.13;14.43;;;;;;;14.73;47.79;91814.13;4918336;29;20043;-83
2022/01/05 06:01:24;;;;;;;19.25;14.32;;;;;;;14.73;47.85;91813.41;4936399;28;20046;-82
2022/01/05 06:03:50;;;;;;;19.08;14.27;;;;;;;14.68;48.11;91817.72;4953859;28;20078;-82
2022/01/05 06:06:15;;;;;;;18.42;13.35;;;;;;;14.67;48.11;91810.09;4969880;28;20039;-83
2022/01/05 06:08:41;;;;;;;18.83;14.30;;;;;;;14.71;48.07;91811.22;4968383;28;20051;-83
2022/01/05 06:11:07;;;;;;;17.50;13.93;;;;;;;14.69;47.89;91816.47;4967519;28;20447;-82
2022/01/05 06:13:32;;;;;;;19.17;14.43;;;;;;;14.68;48.24;91815.00;4952080;28;20042;-83
2022/01/05 06:15:58;;;;;;;17.75;13.27;;;;;;;14.69;48.10;91819.19;4952822;28;20375;-82
2022/01/05 06:18:23;;;;;;;17.88;12.77;;;;;;;14.69;48.04;91821.16;4952852;28;20043;-83
2022/01/05 06:20:48;;;;;;;17.70;12.65;;;;;;;14.70;48.14;91814.47;4952802;28;20031;-83
2022/01/05 06:23:14;;;;;;;17.60;14.13;;;;;;;14.71;48.03;91819.41;4952898;28;20043;-83
2022/01/05 06:25:39;;;;;;;19.95;14.75;;;;;;;14.72;48.02;91822.84;4937420;28;20035;-82
2022/01/05 06:28:08;;;;;;;18.90;13.45;;;;;;;14.74;48.08;91818.31;4936434;28;20038;-82
2022/01/05 06:30:34;;;;;;;18.98;13.88;;;;;;;14.68;48.10;91815.00;4970895;28;20078;-82
2022/01/05 06:32:59;;;;;;;17.05;13.02;;;;;;;14.72;48.07;91825.56;4936933;28;20039;-83
2022/01/05 06:35:24;;;;;;;18.45;13.18;;;;;;;14.75;48.11;91822.50;4951911;28;20043;-82
2022/01/05 06:37:51;;;;;;;17.10;13.48;;;;;;;14.71;48.02;91816.66;4936836;28;20031;-83
2022/01/05 06:40:17;;;;;;;18.48;13.57;;;;;;;14.69;47.82;91821.91;4920270;28;20089;-82
2022/01/05 06:42:42;;;;;;;16.17;13.32;;;;;;;14.68;47.89;91825.16;4952842;28;20035;-83
2022/01/05 06:45:08;;;;;;;17.33;12.95;;;;;;;14.70;48.01;91826.09;4952342;28;20449;-82
2022/01/05 06:47:33;;;;;;;15.05;12.20;;;;;;;14.69;47.94;91835.50;4936524;28;20189;-82
2022/01/05 06:49:58;;;;;;;17.05;13.25;;;;;;;14.69;47.87;91832.06;4952998;28;20581;-82
2022/01/05 06:52:24;;;;;;;17.33;13.10;;;;;;;14.68;47.89;91836.75;4935846;28;20038;-82
2022/01/05 06:54:49;;;;;;;17.52;13.25;;;;;;;14.68;48.11;91838.75;4936828;28;20053;-83
2022/01/05 06:57:15;;;;;;;15.43;12.27;;;;;;;14.68;47.70;91842.19;4951424;28;20062;-83
2022/01/05 06:59:40;;;;;;;16.50;13.70;;;;;;;14.68;47.77;91846.91;4970063;28;20047;-83
2022/01/05 07:02:05;;;;;;;16.35;12.57;;;;;;;14.70;47.83;91858.00;4920024;28;20422;-82
2022/01/05 07:04:31;;;;;;;20.45;13.88;;;;;;;14.71;47.68;91856.75;4952282;28;20093;-83
2022/01/05 07:06:57;;;;;;;15.57;11.52;;;;;;;14.69;47.98;91857.25;4936451;28;20049;-83
2022/01/05 07:09:22;;;;;;;16.00;12.85;;;;;;;14.67;47.92;91857.03;4952123;28;20035;-82
2022/01/05 07:11:47;;;;;;;14.05;11.65;;;;;;;14.67;48.04;91856.31;4936043;28;20398;-82
2022/01/05 07:14:13;;;;;;;16.15;12.43;;;;;;;14.68;47.62;91847.63;4936081;28;20054;-83
2022/01/05 07:16:38;;;;;;;15.98;12.60;;;;;;;14.71;47.87;91857.47;4936238;28;20053;-83
2022/01/05 07:19:04;;;;;;;19.95;12.93;;;;;;;14.73;47.75;91871.25;4951543;28;20051;-82
2022/01/05 07:21:33;;;;;;;16.73;12.55;;;;;;;14.70;47.64;91863.44;4936115;28;20038;-82
2022/01/05 07:23:59;;;;;;;14.90;11.63;;;;;;;14.70;48.09;91868.88;4937007;28;20401;-82
2022/01/05 07:26:24;;;;;;;18.08;13.00;;;;;;;14.67;48.08;91862.50;4951547;28;20035;-83
2022/01/05 07:28:49;;;;;;;16.40;12.73;;;;;;;14.71;47.93;91868.34;4936360;28;20517;-82
2022/01/05 07:31:15;;;;;;;16.77;12.80;;;;;;;14.68;47.77;91876.81;4935897;28;20042;-83
2022/01/05 07:33:40;;;;;;;15.70;12.02;;;;;;;14.65;47.82;91870.44;4951583;28;20034;-82
2022/01/05 07:36:06;;;;;;;15.68;12.25;;;;;;;14.68;47.64;91879.53;4935836;28;20038;-82
2022/01/05 07:38:31;;;;;;;15.80;12.43;;;;;;;14.66;47.77;91871.91;4935825;28;20469;-82
2022/01/05 07:40:56;;;;;;;16.00;12.10;;;;;;;14.68;47.75;91872.13;4951624;28;20043;-82
2022/01/05 07:43:22;;;;;;;14.18;11.07;;;;;;;14.69;47.76;91883.72;4968805;28;20054;-83
2022/01/05 07:45:48;;;;;;;14.15;11.43;;;;;;;14.70;47.71;91896.06;4936676;28;20453;-83
2022/01/05 07:48:14;;;;;;;13.93;11.65;;;;;;;14.68;47.78;91899.31;4951858;28;20099;-83
2022/01/05 07:50:39;;;;;;;15.98;12.10;;;;;;;14.68;47.51;91891.16;4936219;28;20035;-82
2022/01/05 07:53:05;;;;;;;14.48;12.00;;;;;;;14.72;47.63;91885.41;4968688;28;20035;-82
2022/01/05 07:55:31;;;;;;;15.65;11.68;;;;;;;14.64;47.72;91890.00;4935978;28;20042;-82
2022/01/05 07:57:58;;;;;;;17.13;12.45;;;;;;;14.65;47.63;91899.63;4936118;28;20039;-82
2022/01/05 08:00:23;;;;;;;21.83;13.45;;;;;;;14.66;47.99;91901.09;4951779;28;20066;-82
2022/01/05 08:02:49;;;;;;;16.52;12.52;;;;;;;14.70;47.81;91898.78;4935689;28;20042;-82
2022/01/05 08:05:14;;;;;;;16.63;12.73;;;;;;;14.68;47.74;91901.28;4935559;28;20035;-83
2022/01/05 08:07:40;;;;;;;15.60;12.15;;;;;;;14.72;47.80;91907.16;4951719;28;20034;-82
2022/01/05 08:10:06;;;;;;;15.85;12.30;;;;;;;14.71;47.44;91905.69;4935341;28;20593;-82
2022/01/05 08:12:31;;;;;;;18.38;12.45;;;;;;;14.71;47.95;91906.44;4935358;28;20062;-82
2022/01/05 08:14:56;;;;;;;16.90;12.35;;;;;;;14.72;47.81;91901.72;4935794;28;20042;-82
2022/01/05 08:17:22;;;;;;;18.60;12.20;;;;;;;14.76;47.55;91899.41;4922638;28;20046;-82
2022/01/05 08:19:47;;;;;;;15.52;12.40;;;;;;;14.73;47.40;91900.44;4955485;28;20049;-82
2022/01/05 08:22:13;;;;;;;17.67;11.75;;;;;;;14.73;47.59;91909.34;4938657;28;20066;-82
2022/01/05 08:24:38;;;;;;;16.00;11.73;;;;;;;14.70;47.72;91910.41;4955271;28;20047;-82
2022/01/05 08:27:04;;;;;;;14.23;10.52;;;;;;;14.73;47.52;91919.47;4939151;28;20054;-83
2022/01/05 08:29:29;;;;;;;18.27;10.35;;;;;;;14.66;47.69;91922.84;4955227;28;20398;-82
2022/01/05 08:31:55;;;;;;;16.58;12.48;;;;;;;14.68;47.55;91920.34;4939388;28;20518;-82
2022/01/05 08:34:20;;;;;;;13.57;10.10;;;;;;;14.75;47.30;91912.25;4971645;28;20039;-82
2022/01/05 08:36:45;;;;;;;15.02;12.18;;;;;;;14.75;47.36;91914.97;4954874;28;20042;-82
2022/01/05 08:39:11;;;;;;;14.65;11.98;;;;;;;14.66;47.48;91918.13;4938713;28;20453;-82
2022/01/05 08:41:36;;;;;;;13.52;10.73;;;;;;;14.73;47.06;91917.50;4939192;28;20042;-82
2022/01/05 08:44:02;;;;;;;44.00;26.52;;;;;;;14.66;47.17;91929.00;4971516;28;20047;-83
2022/01/05 08:46:27;;;;;;;19.85;13.30;;;;;;;14.70;47.58;91934.88;4938900;28;20062;-82
2022/01/05 08:48:52;;;;;;;14.68;12.10;;;;;;;14.67;47.42;91922.31;4919879;29;20245;-82
2022/01/05 08:51:18;;;;;;;14.63;12.07;;;;;;;14.71;47.32;91922.75;4919349;28;20047;-82
2022/01/05 08:53:43;;;;;;;25.48;16.98;;;;;;;14.71;47.49;91924.72;4919522;29;20027;-82
2022/01/05 08:56:09;;;;;;;22.52;16.17;;;;;;;14.72;47.42;91918.03;4952353;28;20036;-82
2022/01/05 08:58:34;;;;;;;24.60;14.63;;;;;;;14.75;47.28;91920.41;4935389;28;20043;-82
2022/01/05 09:00:59;;;;;;;19.45;13.43;;;;;;;14.73;47.25;91914.78;4934847;28;20054;-82
2022/01/05 09:03:25;;;;;;;15.40;11.02;;;;;;;14.80;47.25;91913.41;4938175;28;20110;-82
2022/01/05 09:05:50;;;;;;;18.27;14.45;;;;;;;14.72;47.58;91916.03;4922309;28;20051;-82
2022/01/05 09:08:16;;;;;;;19.65;13.60;;;;;;;14.80;47.19;91929.75;4953523;28;20035;-82
2022/01/05 09:10:41;;;;;;;21.98;15.07;;;;;;;14.73;47.46;91928.38;4967044;28;20055;-82
2022/01/05 09:13:09;;;;;;;22.50;14.40;;;;;;;14.75;47.25;91933.28;4924831;28;20829;-82
2022/01/05 09:15:34;;;;;;;27.10;17.70;;;;;;;14.73;47.47;91924.91;4972006;28;20046;-82
2022/01/05 09:18:00;;;;;;;34.35;23.30;;;;;;;14.72;47.53;91921.47;4954102;28;20043;-82
2022/01/05 09:20:25;;;;;;;27.30;19.90;;;;;;;14.74;47.49;91921.69;4953643;28;20042;-82
2022/01/05 09:22:51;;;;;;;28.92;19.75;;;;;;;14.73;47.45;91922.19;4938607;28;20046;-82
2022/01/05 09:25:18;;;;;;;27.92;20.45;;;;;;;14.70;47.43;91924.00;4918375;28;20410;-82
2022/01/05 09:27:44;;;;;;;30.05;19.90;;;;;;;14.67;47.50;91927.75;4920068;29;20043;-83
2022/01/05 09:30:10;;;;;;;31.70;19.27;;;;;;;14.70;47.43;91934.16;4934649;28;20066;-82
2022/01/05 09:32:36;;;;;;;29.35;20.08;;;;;;;14.71;47.47;91932.91;4915760;29;20090;-82
2022/01/05 09:35:01;;;;;;;29.58;19.85;;;;;;;14.70;47.39;91936.88;4915731;29;20036;-82
2022/01/05 09:37:32;;;;;;;26.65;19.02;;;;;;;14.73;47.53;91941.25;4918242;29;20035;-82
2022/01/05 09:42:41;;;;;;;27.80;18.20;;;;;;;14.72;47.35;91945.94;4952133;28;20046;-82
2022/01/05 09:45:15;;;;;;;27.65;17.83;;;;;;;14.71;47.37;91957.38;4950848;28;20035;-82
2022/01/05 09:48:18;;;;;;;27.15;18.08;;;;;;;14.70;47.39;91958.63;4934389;29;20080;-82
2022/01/05 09:51:01;;;;;;;30.77;18.70;;;;;;;14.71;47.37;91960.81;4952138;28;20039;-82
2022/01/05 09:53:26;;;;;;;33.90;19.02;;;;;;;14.71;47.62;91960.81;4949867;28;20047;-82
2022/01/05 09:55:51;;;;;;;40.13;21.70;;;;;;;14.70;47.09;91961.34;4950570;28;20589;-82
2022/01/05 09:58:19;;;;;;;29.45;19.42;;;;;;;14.73;47.21;91971.16;4932431;28;20039;-82
2022/01/05 10:00:45;;;;;;;28.92;17.23;;;;;;;14.77;47.29;91973.56;4913194;29;20047;-82
2022/01/05 10:03:10;;;;;;;37.60;20.30;;;;;;;14.73;47.11;91954.84;4897691;29;20601;-82
2022/01/05 10:05:35;;;;;;;35.78;21.33;;;;;;;14.69;47.20;91974.22;4932654;29;20047;-82
2022/01/05 10:08:01;;;;;;;36.20;20.40;;;;;;;14.68;47.49;91975.47;4915410;29;20422;-82
2022/01/05 10:10:26;;;;;;;37.30;20.70;;;;;;;14.71;47.06;91977.16;4931316;28;20135;-82
2022/01/05 10:12:52;;;;;;;35.47;21.83;;;;;;;14.73;47.34;91979.31;4927373;29;20054;-82
2022/01/05 10:15:17;;;;;;;45.05;21.60;;;;;;;14.73;47.20;91984.75;4931448;28;20063;-83
2022/01/05 10:17:42;;;;;;;39.28;21.98;;;;;;;14.76;46.84;91983.72;4932663;29;20450;-83
2022/01/05 10:20:09;;;;;;;34.67;22.42;;;;;;;14.72;47.17;91981.31;4931696;28;20551;-82
2022/01/05 10:22:39;;;;;;;39.78;23.30;;;;;;;14.69;47.08;91976.94;4932228;29;20061;-82
2022/01/05 10:25:05;;;;;;;34.72;21.23;;;;;;;14.72;47.31;91977.88;4941347;29;20051;-82
2022/01/05 10:27:31;;;;;;;39.90;22.92;;;;;;;14.69;47.14;91987.06;4913586;29;20648;-82
2022/01/05 10:29:59;;;;;;;43.40;23.40;;;;;;;14.75;47.49;91999.31;4914688;29;20039;-82
2022/01/05 10:32:25;;;;;;;44.65;22.40;;;;;;;14.72;47.42;91989.47;4898561;28;20035;-82
2022/01/05 10:35:07;;;;;;;46.13;22.45;;;;;;;14.79;47.29;91971.06;4914904;29;20119;-83
2022/01/05 10:37:33;;;;;;;40.70;21.63;;;;;;;14.71;47.38;91984.56;4914234;29;20031;-82
2022/01/05 10:40:14;;;;;;;46.92;23.50;;;;;;;14.71;47.21;91982.59;4942205;28;20050;-83
2022/01/05 10:42:40;;;;;;;41.60;21.40;;;;;;;14.77;47.25;91985.19;4949796;28;20058;-83
2022/01/05 10:45:06;;;;;;;45.15;22.60;;;;;;;14.77;47.03;91970.84;4933418;28;20455;-82
2022/01/05 10:47:33;;;;;;;44.17;23.58;;;;;;;14.75;47.31;91971.38;4949465;28;20031;-82
2022/01/05 10:49:59;;;;;;;44.70;24.33;;;;;;;14.77;47.27;91971.59;4933808;28;20065;-82
2022/01/05 10:52:25;;;;;;;56.25;25.27;;;;;;;14.77;47.04;91987.19;4932774;28;20337;-83
2022/01/05 10:54:51;;;;;;;53.72;24.98;;;;;;;14.72;46.79;91981.31;4951076;28;20043;-82
2022/01/05 10:57:16;;;;;;;49.65;24.48;;;;;;;14.78;47.03;91970.34;4949182;28;20403;-82
2022/01/05 10:59:44;;;;;;;49.05;24.95;;;;;;;14.75;46.95;91982.97;4932172;28;20043;-82
2022/01/05 11:02:30;;;;;;;53.50;24.20;;;;;;;14.70;47.29;91983.84;4948414;28;20043;-82
2022/01/05 11:04:58;;;;;;;55.67;24.92;;;;;;;14.72;46.90;91986.75;4950648;28;20098;-82
2022/01/05 11:07:24;;;;;;;52.00;24.88;;;;;;;14.75;47.31;91982.25;4948933;28;20043;-83
2022/01/05 11:09:57;;;;;;;51.70;24.00;;;;;;;14.68;47.21;91983.63;4933638;28;20046;-82
2022/01/05 11:12:40;;;;;;;62.50;27.27;;;;;;;14.71;47.44;91992.72;4949756;28;20049;-83
2022/01/05 11:15:24;;;;;;;56.88;25.60;;;;;;;14.75;47.15;92006.72;4917535;28;20459;-83